createdAt,value
2017-10-09T00:00:27.354Z,8.77
2017-10-09T00:02:54.935Z,8.72
2017-10-09T00:05:22.537Z,8.63
2017-10-09T00:07:50.112Z,8.57
2017-10-09T00:10:17.774Z,8.53
2017-10-09T00:12:45.356Z,8.58
2017-10-09T00:15:12.945Z,8.46
2017-10-09T00:17:40.540Z,8.34
2017-10-09T00:20:08.115Z,8.20
2017-10-09T00:22:35.718Z,8.23
2017-10-09T00:25:03.296Z,8.19
2017-10-09T00:27:30.881Z,8.28
2017-10-09T00:29:58.483Z,8.23
2017-10-09T00:32:26.060Z,8.24
2017-10-09T00:34:53.966Z,8.25
2017-10-09T00:37:21.828Z,8.25
2017-10-09T00:39:49.405Z,8.18
2017-10-09T00:42:17.029Z,8.09
2017-10-09T00:44:44.613Z,8.14
2017-10-09T00:47:12.224Z,8.15
2017-10-09T00:49:39.805Z,8.16
2017-10-09T00:52:07.391Z,8.13
2017-10-09T00:54:34.991Z,8.12
2017-10-09T00:57:02.564Z,8.09
2017-10-09T00:59:30.175Z,8.11
2017-10-09T01:01:57.781Z,8.05
2017-10-09T01:04:25.373Z,8.10
2017-10-09T01:06:52.979Z,8.01
2017-10-09T01:09:20.560Z,8.09
2017-10-09T01:11:48.189Z,7.94
2017-10-09T01:14:15.777Z,7.90
2017-10-09T01:16:43.725Z,7.87
2017-10-09T01:19:11.592Z,7.95
2017-10-09T01:21:39.471Z,7.95
2017-10-09T01:24:07.095Z,7.82
2017-10-09T01:26:34.670Z,7.78
2017-10-09T01:29:02.265Z,7.67
2017-10-09T01:31:29.872Z,7.82
2017-10-09T01:33:57.453Z,7.76
2017-10-09T01:36:25.070Z,7.88
2017-10-09T01:38:53.000Z,7.95
2017-10-09T01:41:20.600Z,8.05
2017-10-09T01:43:48.203Z,8.12
2017-10-09T01:46:15.785Z,8.18
2017-10-09T01:48:43.420Z,8.18
2017-10-09T01:51:11.001Z,8.21
2017-10-09T01:53:38.579Z,8.27
2017-10-09T01:56:06.175Z,8.28
2017-10-09T01:58:33.997Z,8.29
2017-10-09T02:01:01.609Z,8.29
2017-10-09T02:03:29.190Z,8.29
2017-10-09T02:05:56.783Z,8.29
2017-10-09T02:08:24.395Z,8.27
2017-10-09T02:10:51.974Z,8.24
2017-10-09T02:13:19.595Z,8.25
2017-10-09T02:15:47.170Z,8.26
2017-10-09T02:18:14.746Z,8.26
2017-10-09T02:20:42.344Z,8.24
2017-10-09T02:23:09.920Z,8.15
2017-10-09T02:25:37.546Z,7.95
2017-10-09T02:28:05.452Z,7.69
2017-10-09T02:30:33.035Z,7.50
2017-10-09T02:33:00.649Z,7.58
2017-10-09T02:35:28.229Z,7.63
2017-10-09T02:37:55.856Z,7.75
2017-10-09T02:40:23.449Z,7.75
2017-10-09T02:42:51.064Z,7.67
2017-10-09T02:45:18.685Z,7.77
2017-10-09T02:47:46.268Z,7.84
2017-10-09T02:50:14.212Z,7.73
2017-10-09T02:52:41.792Z,7.77
2017-10-09T02:55:09.381Z,7.65
2017-10-09T02:57:36.993Z,7.67
2017-10-09T03:00:04.586Z,7.49
2017-10-09T03:02:32.209Z,7.52
2017-10-09T03:04:59.782Z,7.35
2017-10-09T03:07:27.366Z,7.27
2017-10-09T03:09:54.984Z,7.35
2017-10-09T03:12:22.563Z,7.37
2017-10-09T03:14:50.185Z,7.48
2017-10-09T03:17:17.779Z,7.50
2017-10-09T03:19:45.370Z,7.58
2017-10-09T03:22:23.552Z,7.62
2017-10-09T03:24:53.069Z,7.64
2017-10-09T03:27:25.149Z,7.70
2017-10-09T03:29:52.997Z,7.71
2017-10-09T03:32:20.606Z,7.72
2017-10-09T03:34:48.423Z,7.75
2017-10-09T03:37:16.048Z,7.78
2017-10-09T03:39:43.951Z,7.82
2017-10-09T03:42:11.525Z,7.84
2017-10-09T03:44:39.126Z,7.75
2017-10-09T03:47:06.709Z,7.75
2017-10-09T03:49:34.603Z,7.72
2017-10-09T03:52:02.190Z,7.74
2017-10-09T03:54:29.773Z,7.72
2017-10-09T03:56:57.380Z,7.67
2017-10-09T03:59:25.361Z,7.63
2017-10-09T04:01:52.981Z,7.63
2017-10-09T04:04:20.558Z,7.65
2017-10-09T04:06:48.138Z,7.62
2017-10-09T04:09:15.741Z,7.64
2017-10-09T04:11:43.585Z,7.65
2017-10-09T04:14:11.551Z,7.55
2017-10-09T04:16:39.129Z,7.54
2017-10-09T04:19:07.083Z,7.55
2017-10-09T04:21:34.688Z,7.54
2017-10-09T04:24:02.273Z,7.32
2017-10-09T04:26:29.894Z,7.33
2017-10-09T04:28:57.730Z,7.40
2017-10-09T04:31:25.316Z,7.44
2017-10-09T04:33:53.370Z,7.41
2017-10-09T04:36:20.965Z,7.44
2017-10-09T04:38:48.897Z,7.50
2017-10-09T04:41:16.497Z,7.46
2017-10-09T04:43:44.109Z,7.39
2017-10-09T04:46:11.707Z,7.41
2017-10-09T04:48:39.288Z,7.44
2017-10-09T04:51:06.937Z,7.43
2017-10-09T04:53:34.769Z,7.44
2017-10-09T04:56:02.349Z,7.43
2017-10-09T04:58:30.004Z,7.43
2017-10-09T05:00:57.578Z,7.45
2017-10-09T05:03:25.197Z,7.47
2017-10-09T05:05:52.764Z,7.46
2017-10-09T05:08:20.338Z,7.44
2017-10-09T05:10:47.981Z,7.37
2017-10-09T05:13:15.875Z,7.37
2017-10-09T05:15:43.510Z,7.36
2017-10-09T05:18:11.099Z,7.37
2017-10-09T05:20:38.688Z,7.36
2017-10-09T05:23:06.300Z,7.32
2017-10-09T05:25:33.899Z,7.24
2017-10-09T05:28:01.524Z,7.09
2017-10-09T05:30:29.091Z,6.96
2017-10-09T05:32:56.671Z,6.91
2017-10-09T05:35:24.635Z,6.92
2017-10-09T05:37:52.605Z,6.97
2017-10-09T05:40:20.213Z,6.90
2017-10-09T05:42:47.910Z,7.01
2017-10-09T05:45:15.490Z,7.12
2017-10-09T05:47:43.104Z,7.14
2017-10-09T05:50:10.703Z,7.16
2017-10-09T05:52:38.321Z,7.16
2017-10-09T05:55:05.905Z,6.95
2017-10-09T05:57:33.484Z,6.92
2017-10-09T06:00:01.132Z,6.91
2017-10-09T06:02:28.722Z,6.98
2017-10-09T06:04:56.335Z,6.83
2017-10-09T06:07:24.261Z,6.82
2017-10-09T06:09:51.857Z,6.95
2017-10-09T06:12:19.559Z,7.06
2017-10-09T06:14:47.169Z,6.98
2017-10-09T06:17:14.789Z,7.11
2017-10-09T06:19:42.396Z,7.21
2017-10-09T06:22:10.008Z,7.21
2017-10-09T06:24:37.610Z,7.29
2017-10-09T06:27:05.236Z,7.34
2017-10-09T06:29:33.231Z,7.47
2017-10-09T06:32:00.833Z,7.51
2017-10-09T06:34:28.456Z,7.48
2017-10-09T06:36:56.274Z,7.52
2017-10-09T06:39:23.864Z,7.57
2017-10-09T06:41:51.748Z,7.61
2017-10-09T06:44:19.335Z,7.69
2017-10-09T06:46:46.976Z,7.69
2017-10-09T06:49:14.672Z,7.65
2017-10-09T06:51:42.303Z,7.66
2017-10-09T06:54:09.921Z,7.70
2017-10-09T06:56:37.510Z,7.72
2017-10-09T06:59:05.491Z,7.76
2017-10-09T07:01:33.088Z,7.81
2017-10-09T07:04:01.020Z,7.81
2017-10-09T07:06:28.885Z,7.79
2017-10-09T07:08:56.459Z,7.84
2017-10-09T07:11:24.092Z,7.94
2017-10-09T07:13:51.684Z,7.91
2017-10-09T07:16:19.537Z,8.08
2017-10-09T07:18:47.142Z,8.24
2017-10-09T07:21:14.757Z,8.22
2017-10-09T07:23:42.385Z,8.32
2017-10-09T07:26:10.293Z,8.32
2017-10-09T07:28:37.891Z,8.36
2017-10-09T07:31:05.496Z,8.42
2017-10-09T07:33:33.080Z,8.44
2017-10-09T07:36:00.702Z,8.55
2017-10-09T07:38:28.328Z,8.76
2017-10-09T07:40:55.904Z,8.97
2017-10-09T07:43:23.531Z,9.12
2017-10-09T07:45:51.158Z,9.36
2017-10-09T07:48:18.773Z,9.58
2017-10-09T07:53:20.104Z,9.82
2017-10-09T07:55:47.715Z,9.86
2017-10-09T07:58:15.343Z,9.88
2017-10-09T08:00:43.314Z,9.86
2017-10-09T08:03:10.902Z,9.85
2017-10-09T08:05:38.529Z,9.67
2017-10-09T08:08:06.129Z,9.75
2017-10-09T08:10:33.712Z,9.73
2017-10-09T08:13:01.625Z,9.57
2017-10-09T08:15:29.220Z,9.78
2017-10-09T08:17:56.835Z,9.84
2017-10-09T08:20:24.425Z,9.96
2017-10-09T08:22:52.017Z,10.00
2017-10-09T08:25:19.662Z,10.18
2017-10-09T08:27:47.506Z,10.00
2017-10-09T08:30:15.142Z,10.02
2017-10-09T08:32:42.793Z,10.00
2017-10-09T08:35:10.406Z,10.02
2017-10-09T08:37:38.021Z,10.37
2017-10-09T08:40:05.605Z,10.60
2017-10-09T08:42:33.240Z,10.41
2017-10-09T08:45:00.854Z,10.73
2017-10-09T08:47:28.452Z,10.62
2017-10-09T08:49:56.094Z,10.93
2017-10-09T08:52:23.697Z,11.55
2017-10-09T08:54:51.340Z,12.02
2017-10-09T08:57:19.256Z,12.49
2017-10-09T08:59:46.849Z,13.00
2017-10-09T09:02:14.510Z,13.37
2017-10-09T09:04:42.104Z,13.60
2017-10-09T09:07:09.737Z,12.88
2017-10-09T09:09:37.335Z,13.02
2017-10-09T09:12:04.939Z,12.93
2017-10-09T09:14:32.593Z,12.92
2017-10-09T09:17:00.175Z,13.08
2017-10-09T09:19:27.825Z,13.23
2017-10-09T09:21:55.413Z,13.16
2017-10-09T09:24:22.999Z,13.21
2017-10-09T09:26:51.085Z,12.91
2017-10-09T09:29:18.682Z,12.86
2017-10-09T09:31:46.621Z,12.23
2017-10-09T09:34:14.203Z,12.00
2017-10-09T09:36:42.295Z,12.52
2017-10-09T09:39:09.911Z,12.67
2017-10-09T09:41:37.486Z,12.65
2017-10-09T09:44:05.132Z,12.76
2017-10-09T09:46:33.031Z,12.86
2017-10-09T09:49:00.629Z,12.82
2017-10-09T09:51:28.561Z,12.79
2017-10-09T09:53:56.225Z,13.11
2017-10-09T09:56:23.852Z,13.44
2017-10-09T09:58:51.764Z,13.08
2017-10-09T10:01:19.353Z,12.95
2017-10-09T10:03:46.970Z,12.80
2017-10-09T10:06:14.569Z,12.87
2017-10-09T10:08:42.581Z,12.77
2017-10-09T10:11:10.190Z,13.19
2017-10-09T10:13:37.775Z,13.36
2017-10-09T10:16:05.702Z,13.66
2017-10-09T10:18:33.306Z,13.68
2017-10-09T10:21:00.928Z,13.57
2017-10-09T10:23:28.505Z,13.84
2017-10-09T10:25:56.127Z,14.00
2017-10-09T10:28:24.117Z,13.95
2017-10-09T10:30:51.712Z,13.70
2017-10-09T10:33:19.336Z,13.69
2017-10-09T10:35:46.930Z,13.76
2017-10-09T10:38:14.548Z,13.89
2017-10-09T10:40:42.172Z,13.90
2017-10-09T10:43:09.774Z,13.85
2017-10-09T10:45:37.755Z,13.55
2017-10-09T10:48:05.340Z,13.32
2017-10-09T10:50:32.926Z,13.36
2017-10-09T10:53:00.545Z,13.30
2017-10-09T10:55:28.373Z,13.44
2017-10-09T10:57:55.993Z,13.29
2017-10-09T11:00:23.648Z,13.38
2017-10-09T11:02:51.221Z,13.25
2017-10-09T11:05:18.833Z,13.23
2017-10-09T11:07:47.005Z,13.63
2017-10-09T11:10:14.624Z,14.02
2017-10-09T11:12:42.205Z,14.20
2017-10-09T11:15:09.808Z,14.35
2017-10-09T11:17:37.409Z,14.84
2017-10-09T11:20:05.000Z,15.38
2017-10-09T11:22:32.623Z,15.73
2017-10-09T11:25:00.219Z,16.27
2017-10-09T11:27:27.812Z,16.60
2017-10-09T11:29:55.424Z,16.92
2017-10-09T11:32:23.013Z,15.81
2017-10-09T11:34:50.632Z,15.31
2017-10-09T11:37:18.219Z,15.38
2017-10-09T11:39:45.825Z,15.95
2017-10-09T11:42:13.437Z,16.32
2017-10-09T11:44:41.270Z,16.95
2017-10-09T11:47:09.067Z,17.09
2017-10-09T11:49:36.661Z,16.89
2017-10-09T11:52:04.293Z,16.66
2017-10-09T11:54:31.882Z,16.51
2017-10-09T11:56:59.464Z,16.14
2017-10-09T11:59:27.080Z,15.97
2017-10-09T12:01:54.664Z,15.52
2017-10-09T12:04:22.272Z,15.41
2017-10-09T12:06:49.869Z,15.44
2017-10-09T12:09:17.893Z,15.30
2017-10-09T12:11:45.770Z,14.62
2017-10-09T12:14:13.637Z,14.33
2017-10-09T12:16:41.611Z,14.26
2017-10-09T12:19:09.194Z,14.15
2017-10-09T12:21:36.813Z,14.33
2017-10-09T12:26:38.534Z,14.64
2017-10-09T12:29:06.169Z,14.74
2017-10-09T12:31:33.761Z,14.73
2017-10-09T12:34:01.372Z,14.41
2017-10-09T12:36:28.958Z,14.16
2017-10-09T12:38:56.589Z,13.95
2017-10-09T12:41:24.172Z,14.07
2017-10-09T12:43:51.748Z,14.32
2017-10-09T12:46:19.360Z,14.54
2017-10-09T12:48:46.948Z,14.24
2017-10-09T12:51:14.623Z,14.13
2017-10-09T12:53:42.259Z,14.26
2017-10-09T12:56:09.844Z,14.37
2017-10-09T12:58:37.493Z,14.18
2017-10-09T13:01:05.076Z,14.19
2017-10-09T13:03:32.696Z,14.19
2017-10-09T13:06:00.304Z,14.15
2017-10-09T13:08:27.891Z,14.16
2017-10-09T13:10:55.525Z,14.09
2017-10-09T13:13:23.113Z,14.29
2017-10-09T13:15:50.745Z,14.38
2017-10-09T13:18:18.609Z,14.30
2017-10-09T13:20:47.748Z,14.05
2017-10-09T13:23:15.672Z,13.91
2017-10-09T13:25:43.543Z,13.80
2017-10-09T13:28:11.186Z,13.69
2017-10-09T13:30:38.810Z,13.71
2017-10-09T13:33:06.414Z,13.58
2017-10-09T13:35:34.046Z,13.59
2017-10-09T13:38:01.624Z,13.56
2017-10-09T13:40:29.279Z,13.46
2017-10-09T13:42:56.873Z,13.39
2017-10-09T13:45:24.460Z,13.42
2017-10-09T13:47:52.078Z,13.42
2017-10-09T13:50:19.665Z,13.48
2017-10-09T13:52:47.326Z,13.53
2017-10-09T13:55:14.922Z,13.64
2017-10-09T13:57:42.853Z,13.61
2017-10-09T14:00:10.477Z,13.64
2017-10-09T14:05:05.430Z,13.54
2017-10-09T14:07:33.013Z,13.53
2017-10-09T14:10:00.737Z,13.43
2017-10-09T14:12:28.359Z,13.26
2017-10-09T14:14:55.940Z,13.16
2017-10-09T14:17:23.552Z,13.14
2017-10-09T14:19:51.144Z,12.99
2017-10-09T14:22:18.732Z,12.79
2017-10-09T14:24:46.380Z,12.93
2017-10-09T14:27:13.972Z,13.05
2017-10-09T14:29:41.609Z,12.95
2017-10-09T14:42:00.219Z,12.68
2017-10-09T14:44:27.817Z,12.64
2017-10-09T14:46:55.419Z,12.52
2017-10-09T14:49:23.041Z,12.54
2017-10-09T14:51:50.633Z,12.40
2017-10-09T14:54:18.267Z,12.26
2017-10-09T14:56:45.855Z,12.18
2017-10-09T14:59:13.448Z,12.16
2017-10-09T15:01:41.074Z,12.16
2017-10-09T15:04:08.677Z,12.14
2017-10-09T15:06:36.338Z,12.02
2017-10-09T15:09:03.929Z,11.99
2017-10-09T15:11:31.545Z,11.94
2017-10-09T15:13:59.171Z,11.94
2017-10-09T15:16:26.757Z,11.80
2017-10-09T15:18:54.720Z,11.81
2017-10-09T15:21:22.690Z,11.73
2017-10-09T15:23:50.290Z,11.64
2017-10-09T15:26:17.906Z,11.60
2017-10-09T15:28:45.493Z,11.50
2017-10-09T15:31:13.157Z,11.52
2017-10-09T15:33:40.755Z,11.62
2017-10-09T15:36:08.353Z,11.67
2017-10-09T15:38:36.321Z,11.72
2017-10-09T15:41:03.916Z,11.68
2017-10-09T15:43:31.553Z,11.66
2017-10-09T15:45:59.179Z,11.59
2017-10-09T15:48:26.787Z,11.61
2017-10-09T15:50:54.751Z,11.47
2017-10-09T15:53:22.333Z,11.43
2017-10-09T15:55:50.401Z,11.36
2017-10-09T15:58:18.001Z,11.36
2017-10-09T16:00:45.597Z,11.28
2017-10-09T16:03:13.221Z,11.18
2017-10-09T16:05:41.130Z,11.18
2017-10-09T16:08:08.776Z,11.19
2017-10-09T16:10:36.369Z,11.17
2017-10-09T16:13:03.961Z,11.06
2017-10-09T16:15:31.585Z,11.11
2017-10-09T16:17:59.180Z,11.01
2017-10-09T16:20:26.808Z,11.06
2017-10-09T16:22:54.664Z,10.94
2017-10-09T16:25:22.257Z,10.93
2017-10-09T16:27:49.867Z,10.99
2017-10-09T16:30:17.765Z,10.99
2017-10-09T16:32:45.385Z,11.05
2017-10-09T16:35:13.291Z,11.05
2017-10-09T16:37:41.088Z,11.06
2017-10-09T16:40:08.711Z,11.09
2017-10-09T16:42:36.306Z,11.12
2017-10-09T16:45:03.932Z,11.07
2017-10-09T16:47:31.526Z,11.01
2017-10-09T16:49:59.136Z,10.97
2017-10-09T16:52:26.763Z,10.98
2017-10-09T16:54:54.376Z,11.00
2017-10-09T16:57:21.996Z,11.05
2017-10-09T16:59:49.915Z,11.01
2017-10-09T17:02:17.518Z,10.97
2017-10-09T17:04:45.764Z,10.99
2017-10-09T17:07:13.428Z,10.94
2017-10-09T17:09:41.396Z,10.86
2017-10-09T17:12:09.705Z,10.81
2017-10-09T17:14:37.321Z,10.85
2017-10-09T17:17:04.936Z,10.82
2017-10-09T17:19:32.535Z,10.77
2017-10-09T17:22:00.174Z,10.78
2017-10-09T17:24:27.763Z,10.78
2017-10-09T17:26:55.359Z,10.70
2017-10-09T17:29:22.981Z,10.70
2017-10-09T17:31:50.575Z,10.58
2017-10-09T17:34:18.209Z,10.61
2017-10-09T17:36:45.793Z,10.63
2017-10-09T17:39:13.385Z,10.55
2017-10-09T17:41:41.002Z,10.54
2017-10-09T17:44:09.328Z,10.57
2017-10-09T17:46:37.075Z,10.53
2017-10-09T17:49:04.670Z,10.62
2017-10-09T17:51:32.268Z,10.52
2017-10-09T17:53:59.896Z,10.58
2017-10-09T17:56:27.492Z,10.57
2017-10-09T17:58:55.128Z,10.52
2017-10-09T18:01:22.728Z,10.57
2017-10-09T18:03:50.330Z,10.46
2017-10-09T18:06:18.231Z,10.52
2017-10-09T18:08:45.844Z,10.51
2017-10-09T18:11:13.470Z,10.53
2017-10-09T18:13:41.089Z,10.53
2017-10-09T18:16:08.684Z,10.56
2017-10-09T18:18:36.306Z,10.61
2017-10-09T18:21:03.902Z,10.57
2017-10-09T18:23:31.541Z,10.55
2017-10-09T18:25:59.140Z,10.60
2017-10-09T18:28:26.738Z,10.54
2017-10-09T18:30:54.356Z,10.50
2017-10-09T18:33:21.955Z,10.55
2017-10-09T18:35:49.580Z,10.45
2017-10-09T18:38:17.185Z,10.46
2017-10-09T18:40:44.789Z,10.46
2017-10-09T18:43:12.454Z,10.41
2017-10-09T18:45:40.045Z,10.43
2017-10-09T18:48:07.681Z,10.46
2017-10-09T18:50:35.295Z,10.48
2017-10-09T18:53:02.889Z,10.49
2017-10-09T18:55:30.549Z,10.53
2017-10-09T18:57:58.137Z,10.48
2017-10-09T19:00:25.797Z,10.54
2017-10-09T19:02:53.637Z,10.53
2017-10-09T19:05:21.250Z,10.51
2017-10-09T19:07:49.221Z,10.54
2017-10-09T19:10:16.809Z,10.49
2017-10-09T19:12:44.417Z,10.36
2017-10-09T19:15:12.049Z,10.36
2017-10-09T19:17:39.974Z,10.41
2017-10-09T19:20:07.575Z,10.42
2017-10-09T19:22:35.193Z,10.44
2017-10-09T19:25:02.816Z,10.48
2017-10-09T19:27:30.455Z,10.45
2017-10-09T19:29:58.040Z,10.39
2017-10-09T19:32:25.874Z,10.31
2017-10-09T19:34:53.501Z,10.41
2017-10-09T19:37:21.113Z,10.45
2017-10-09T19:39:48.768Z,10.48
2017-10-09T19:42:16.355Z,10.43
2017-10-09T19:44:43.958Z,10.39
2017-10-09T19:47:11.581Z,10.39
2017-10-09T19:49:39.167Z,10.41
2017-10-09T19:52:06.801Z,10.39
2017-10-09T19:54:34.718Z,10.47
2017-10-09T19:57:02.348Z,10.53
2017-10-09T19:59:29.965Z,10.54
2017-10-09T20:01:58.298Z,10.47
2017-10-09T20:04:25.941Z,10.45
2017-10-09T20:06:53.528Z,10.40
2017-10-09T20:09:21.113Z,10.44
2017-10-09T20:11:48.778Z,10.45
2017-10-09T20:14:16.363Z,10.47
2017-10-09T20:16:43.994Z,10.44
2017-10-09T20:19:11.623Z,10.40
2017-10-09T20:21:39.221Z,10.34
2017-10-09T20:24:06.854Z,10.34
2017-10-09T20:26:34.447Z,10.27
2017-10-09T20:29:02.075Z,10.29
2017-10-09T20:31:30.259Z,10.27
2017-10-09T20:33:58.079Z,10.28
2017-10-09T20:36:26.565Z,10.35
2017-10-09T20:38:54.213Z,10.29
2017-10-09T20:41:22.161Z,10.31
2017-10-09T20:43:49.779Z,10.27
2017-10-09T20:46:17.378Z,10.34
2017-10-09T20:48:45.007Z,10.38
2017-10-09T20:51:12.594Z,10.42
2017-10-09T20:53:40.241Z,10.42
2017-10-09T20:56:07.866Z,10.37
2017-10-09T20:58:35.473Z,10.37
2017-10-09T21:01:03.085Z,10.33
2017-10-09T21:03:30.680Z,10.29
2017-10-09T21:05:58.581Z,10.35
2017-10-09T21:08:26.169Z,10.34
2017-10-09T21:10:53.758Z,10.32
2017-10-09T21:13:21.437Z,10.35
2017-10-09T21:15:49.032Z,10.27
2017-10-09T21:18:16.721Z,10.26
2017-10-09T21:20:44.365Z,10.29
2017-10-09T21:23:11.970Z,10.37
2017-10-09T21:25:39.598Z,10.44
2017-10-09T21:28:07.192Z,10.45
2017-10-09T21:30:34.829Z,10.36
2017-10-09T21:33:02.427Z,10.36
2017-10-09T21:35:30.029Z,10.32
2017-10-09T21:37:57.645Z,10.39
2017-10-09T21:40:25.270Z,10.33
2017-10-09T21:42:52.927Z,10.35
2017-10-09T21:45:20.527Z,10.43
2017-10-09T21:47:48.121Z,10.47
2017-10-09T21:50:15.730Z,10.47
2017-10-09T21:52:43.578Z,10.50
2017-10-09T21:55:11.204Z,10.44
2017-10-09T21:57:38.863Z,10.44
2017-10-09T22:00:06.459Z,10.44
2017-10-09T22:02:34.068Z,10.52
2017-10-09T22:05:02.101Z,10.57
2017-10-09T22:07:29.729Z,10.53
2017-10-09T22:09:57.323Z,10.54
2017-10-09T22:12:24.909Z,10.59
2017-10-09T22:14:52.535Z,10.63
2017-10-09T22:17:20.125Z,10.58
2017-10-09T22:19:47.750Z,10.52
2017-10-09T22:22:15.334Z,10.50
2017-10-09T22:24:43.291Z,10.53
2017-10-09T22:27:10.899Z,10.58
2017-10-09T22:29:38.720Z,10.61
2017-10-09T22:32:06.345Z,10.61
2017-10-09T22:34:33.937Z,10.61
2017-10-09T22:37:01.532Z,10.63
2017-10-09T22:39:29.144Z,10.68
2017-10-09T22:41:56.743Z,10.60
2017-10-09T22:44:24.373Z,10.64
2017-10-09T22:46:51.959Z,10.64
2017-10-09T22:49:19.544Z,10.67
2017-10-09T22:51:47.397Z,10.72
2017-10-09T22:54:14.992Z,10.72
2017-10-09T22:56:42.642Z,10.72
2017-10-09T23:00:00.317Z,10.73
2017-10-09T23:02:28.311Z,10.76
2017-10-09T23:04:55.913Z,10.79
2017-10-09T23:07:23.520Z,10.80
2017-10-09T23:09:51.138Z,10.77
2017-10-09T23:12:18.733Z,10.76
2017-10-09T23:14:46.374Z,10.77
2017-10-09T23:17:13.953Z,10.82
2017-10-09T23:19:41.545Z,10.81
2017-10-09T23:22:09.517Z,10.75
2017-10-09T23:24:37.114Z,10.76
2017-10-09T23:27:04.742Z,10.77
2017-10-09T23:29:32.333Z,10.79
2017-10-09T23:31:59.925Z,10.80
2017-10-09T23:34:27.553Z,10.81
2017-10-09T23:36:55.386Z,10.82
2017-10-09T23:39:23.000Z,10.82
2017-10-09T23:41:50.585Z,10.84
2017-10-09T23:44:18.185Z,10.82
2017-10-09T23:46:46.152Z,10.80
2017-10-09T23:49:13.740Z,10.78
2017-10-09T23:51:41.372Z,10.78
2017-10-09T23:54:08.961Z,10.80
2017-10-09T23:56:36.572Z,10.74
2017-10-09T23:59:04.194Z,10.76
